sensor_id;sensor_type;location;lat;lon;timestamp;pressure;altitude;pressure_sealevel;temperature
45034;BMP280;30771;47.988;-4.186;2023-01-31T07:02:27;100928.03;;;5.73
45034;BMP280;30771;47.988;-4.186;2023-01-31T07:04:52;100921.69;;;5.75
45034;BMP280;30771;47.988;-4.186;2023-01-31T07:07:17;100917.94;;;5.78
45034;BMP280;30771;47.988;-4.186;2023-01-31T07:09:43;100898.53;;;5.80
45034;BMP280;30771;47.988;-4.186;2023-01-31T07:12:08;100892.69;;;5.87
45034;BMP280;30771;47.988;-4.186;2023-01-31T07:14:33;100894.78;;;5.83
45034;BMP280;30771;47.988;-4.186;2023-01-31T07:16:58;100905.19;;;5.75
45034;BMP280;30771;47.988;-4.186;2023-01-31T07:19:24;100912.00;;;5.68
45034;BMP280;30771;47.988;-4.186;2023-01-31T07:21:49;100906.13;;;5.66
45034;BMP280;30771;47.988;-4.186;2023-01-31T07:24:14;100911.81;;;5.61
45034;BMP280;30771;47.988;-4.186;2023-01-31T07:26:40;100911.75;;;5.53
45034;BMP280;30771;47.988;-4.186;2023-01-31T07:29:05;100919.50;;;5.45
45034;BMP280;30771;47.988;-4.186;2023-01-31T07:31:30;100914.06;;;5.39
45034;BMP280;30771;47.988;-4.186;2023-01-31T07:33:55;100905.75;;;5.35
45034;BMP280;30771;47.988;-4.186;2023-01-31T07:36:20;100901.19;;;5.37
45034;BMP280;30771;47.988;-4.186;2023-01-31T07:38:46;100892.88;;;5.42
45034;BMP280;30771;47.988;-4.186;2023-01-31T07:41:11;100896.47;;;5.41
45034;BMP280;30771;47.988;-4.186;2023-01-31T07:43:36;100892.00;;;5.33
45034;BMP280;30771;47.988;-4.186;2023-01-31T07:46:04;100892.22;;;5.40
45034;BMP280;30771;47.988;-4.186;2023-01-31T07:48:29;100897.44;;;5.40
45034;BMP280;30771;47.988;-4.186;2023-01-31T07:50:58;100897.66;;;5.46
45034;BMP280;30771;47.988;-4.186;2023-01-31T07:53:23;100892.97;;;5.50
45034;BMP280;30771;47.988;-4.186;2023-01-31T07:55:49;100891.03;;;5.52
45034;BMP280;30771;47.988;-4.186;2023-01-31T07:58:14;100901.50;;;5.60
45034;BMP280;30771;47.988;-4.186;2023-01-31T08:00:40;100895.66;;;5.66
45034;BMP280;30771;47.988;-4.186;2023-01-31T08:03:11;100907.13;;;5.73
45034;BMP280;30771;47.988;-4.186;2023-01-31T08:05:37;100901.81;;;5.82
45034;BMP280;30771;47.988;-4.186;2023-01-31T08:08:02;100889.75;;;5.90
45034;BMP280;30771;47.988;-4.186;2023-01-31T08:10:28;100892.59;;;5.96
45034;BMP280;30771;47.988;-4.186;2023-01-31T08:12:53;100898.13;;;6.01
45034;BMP280;30771;47.988;-4.186;2023-01-31T08:15:18;100898.81;;;6.03
45034;BMP280;30771;47.988;-4.186;2023-01-31T08:17:43;100893.41;;;6.05
45034;BMP280;30771;47.988;-4.186;2023-01-31T08:20:08;100896.69;;;6.07
45034;BMP280;30771;47.988;-4.186;2023-01-31T08:22:34;100892.28;;;6.07
45034;BMP280;30771;47.988;-4.186;2023-01-31T08:24:59;100902.91;;;6.06
45034;BMP280;30771;47.988;-4.186;2023-01-31T08:27:24;100897.16;;;6.02
45034;BMP280;30771;47.988;-4.186;2023-01-31T08:29:49;100890.31;;;6.01
45034;BMP280;30771;47.988;-4.186;2023-01-31T08:32:14;100877.72;;;6.05
45034;BMP280;30771;47.988;-4.186;2023-01-31T08:34:39;100873.69;;;6.10
45034;BMP280;30771;47.988;-4.186;2023-01-31T08:37:05;100874.19;;;6.14
45034;BMP280;30771;47.988;-4.186;2023-01-31T08:39:30;100872.22;;;6.16
45034;BMP280;30771;47.988;-4.186;2023-01-31T08:41:55;100875.50;;;6.18
45034;BMP280;30771;47.988;-4.186;2023-01-31T08:44:20;100874.19;;;6.22
45034;BMP280;30771;47.988;-4.186;2023-01-31T08:46:45;100866.53;;;6.28
45034;BMP280;30771;47.988;-4.186;2023-01-31T08:49:10;100865.75;;;6.36
45034;BMP280;30771;47.988;-4.186;2023-01-31T08:51:35;100868.22;;;6.45
45034;BMP280;30771;47.988;-4.186;2023-01-31T08:54:01;100868.06;;;6.55
45034;BMP280;30771;47.988;-4.186;2023-01-31T08:56:26;100863.69;;;6.63
45034;BMP280;30771;47.988;-4.186;2023-01-31T08:58:51;100860.09;;;6.73
45034;BMP280;30771;47.988;-4.186;2023-01-31T09:01:18;100866.97;;;6.82
45034;BMP280;30771;47.988;-4.186;2023-01-31T09:03:43;100870.41;;;6.90
45034;BMP280;30771;47.988;-4.186;2023-01-31T09:06:16;100866.81;;;6.99
45034;BMP280;30771;47.988;-4.186;2023-01-31T09:08:42;100871.88;;;7.09
45034;BMP280;30771;47.988;-4.186;2023-01-31T09:11:07;100868.91;;;7.20
45034;BMP280;30771;47.988;-4.186;2023-01-31T09:13:32;100869.53;;;7.30
45034;BMP280;30771;47.988;-4.186;2023-01-31T09:15:58;100870.00;;;7.41
45034;BMP280;30771;47.988;-4.186;2023-01-31T09:18:24;100875.72;;;7.53
45034;BMP280;30771;47.988;-4.186;2023-01-31T09:20:49;100878.97;;;7.63
45034;BMP280;30771;47.988;-4.186;2023-01-31T09:23:14;100873.19;;;7.76
45034;BMP280;30771;47.988;-4.186;2023-01-31T09:25:39;100867.41;;;7.88
45034;BMP280;30771;47.988;-4.186;2023-01-31T09:28:04;100876.38;;;8.02
45034;BMP280;30771;47.988;-4.186;2023-01-31T09:30:30;100883.22;;;8.11
45034;BMP280;30771;47.988;-4.186;2023-01-31T09:32:55;100891.69;;;8.21
45034;BMP280;30771;47.988;-4.186;2023-01-31T09:35:20;100897.53;;;8.31
45034;BMP280;30771;47.988;-4.186;2023-01-31T09:37:45;100900.78;;;8.41
45034;BMP280;30771;47.988;-4.186;2023-01-31T09:40:11;100914.00;;;8.48
45034;BMP280;30771;47.988;-4.186;2023-01-31T09:42:43;100925.81;;;8.52
45034;BMP280;30771;47.988;-4.186;2023-01-31T09:45:12;100939.56;;;8.54
45034;BMP280;30771;47.988;-4.186;2023-01-31T09:47:42;100938.72;;;8.61
45034;BMP280;30771;47.988;-4.186;2023-01-31T09:52:43;100942.44;;;8.89
45034;BMP280;30771;47.988;-4.186;2023-01-31T09:55:18;100958.59;;;9.01
45034;BMP280;30771;47.988;-4.186;2023-01-31T09:58:20;100975.41;;;9.14
45034;BMP280;30771;47.988;-4.186;2023-01-31T10:00:49;100992.88;;;9.30
45034;BMP280;30771;47.988;-4.186;2023-01-31T10:13:21;101076.94;;;9.90
45034;BMP280;30771;47.988;-4.186;2023-01-31T10:15:51;101087.84;;;10.01
45034;BMP280;30771;47.988;-4.186;2023-01-31T10:18:28;101104.16;;;10.11
45034;BMP280;30771;47.988;-4.186;2023-01-31T10:20:59;101126.41;;;10.24
45034;BMP280;30771;47.988;-4.186;2023-01-31T10:23:39;101142.56;;;10.35
45034;BMP280;30771;47.988;-4.186;2023-01-31T10:26:05;101170.75;;;10.49
45034;BMP280;30771;47.988;-4.186;2023-01-31T10:28:34;101191.16;;;10.62
45034;BMP280;30771;47.988;-4.186;2023-01-31T10:35:59;101276.09;;;11.07
45034;BMP280;30771;47.988;-4.186;2023-01-31T10:38:33;101312.09;;;11.00
45034;BMP280;30771;47.988;-4.186;2023-01-31T10:41:33;101330.00;;;11.05
45034;BMP280;30771;47.988;-4.186;2023-01-31T10:43:52;101350.25;;;11.04
45034;BMP280;30771;47.988;-4.186;2023-01-31T10:46:21;101358.56;;;11.16
45034;BMP280;30771;47.988;-4.186;2023-01-31T10:48:46;101387.84;;;11.21
45034;BMP280;30771;47.988;-4.186;2023-01-31T10:56:03;101451.50;;;11.62
45034;BMP280;30771;47.988;-4.186;2023-01-31T10:58:28;101475.88;;;11.64
45034;BMP280;30771;47.988;-4.186;2023-01-31T11:00:54;101501.28;;;11.65
45034;BMP280;30771;47.988;-4.186;2023-01-31T11:03:19;101499.63;;;11.78
45034;BMP280;30771;47.988;-4.186;2023-01-31T11:05:46;101508.06;;;11.88
45034;BMP280;30771;47.988;-4.186;2023-01-31T11:08:27;101514.81;;;11.91
45034;BMP280;30771;47.988;-4.186;2023-01-31T11:10:54;101520.84;;;11.85
45034;BMP280;30771;47.988;-4.186;2023-01-31T11:13:19;101509.88;;;11.88
45034;BMP280;30771;47.988;-4.186;2023-01-31T11:15:44;101503.63;;;11.89
45034;BMP280;30771;47.988;-4.186;2023-01-31T11:18:13;101496.81;;;11.94
45034;BMP280;30771;47.988;-4.186;2023-01-31T11:20:45;101480.66;;;12.04
45034;BMP280;30771;47.988;-4.186;2023-01-31T11:23:12;101491.03;;;12.05
45034;BMP280;30771;47.988;-4.186;2023-01-31T11:25:38;101489.41;;;12.04
45034;BMP280;30771;47.988;-4.186;2023-01-31T11:28:04;101493.78;;;11.97
45034;BMP280;30771;47.988;-4.186;2023-01-31T11:30:40;101503.34;;;11.84
45034;BMP280;30771;47.988;-4.186;2023-01-31T11:33:05;101493.78;;;11.83
45034;BMP280;30771;47.988;-4.186;2023-01-31T11:35:31;101483.91;;;11.85
45034;BMP280;30771;47.988;-4.186;2023-01-31T11:37:58;101467.31;;;11.91
45034;BMP280;30771;47.988;-4.186;2023-01-31T11:40:28;101457.63;;;11.98
45034;BMP280;30771;47.988;-4.186;2023-01-31T11:42:54;101460.91;;;12.00
45034;BMP280;30771;47.988;-4.186;2023-01-31T11:45:20;101463.94;;;11.97
45034;BMP280;30771;47.988;-4.186;2023-01-31T11:47:48;101463.09;;;11.96
45034;BMP280;30771;47.988;-4.186;2023-01-31T11:50:20;101441.91;;;12.04
45034;BMP280;30771;47.988;-4.186;2023-01-31T11:52:46;101454.00;;;11.99
45034;BMP280;30771;47.988;-4.186;2023-01-31T11:55:17;101439.91;;;11.92
45034;BMP280;30771;47.988;-4.186;2023-01-31T11:57:52;101425.56;;;11.94
45034;BMP280;30771;47.988;-4.186;2023-01-31T12:00:21;101403.59;;;11.94
45034;BMP280;30771;47.988;-4.186;2023-01-31T12:02:50;101391.28;;;12.01
45034;BMP280;30771;47.988;-4.186;2023-01-31T12:05:17;101388.06;;;12.05
45034;BMP280;30771;47.988;-4.186;2023-01-31T12:07:46;101388.91;;;12.06
45034;BMP280;30771;47.988;-4.186;2023-01-31T12:12:52;101353.00;;;12.11
45034;BMP280;30771;47.988;-4.186;2023-01-31T12:15:18;101336.22;;;12.19
45034;BMP280;30771;47.988;-4.186;2023-01-31T12:17:44;101331.19;;;12.24
45034;BMP280;30771;47.988;-4.186;2023-01-31T12:28:18;101319.91;;;12.64
45034;BMP280;30771;47.988;-4.186;2023-01-31T12:54:20;101310.03;;;12.73
45034;BMP280;30771;47.988;-4.186;2023-01-31T13:02:11;101342.28;;;12.89
45034;BMP280;30771;47.988;-4.186;2023-01-31T13:07:42;101352.81;;;12.83
45034;BMP280;30771;47.988;-4.186;2023-01-31T13:12:53;101330.75;;;12.69
45034;BMP280;30771;47.988;-4.186;2023-01-31T13:17:47;101289.41;;;12.55
45034;BMP280;30771;47.988;-4.186;2023-01-31T13:20:29;101269.59;;;12.45
45034;BMP280;30771;47.988;-4.186;2023-01-31T13:22:56;101243.72;;;12.34
45034;BMP280;30771;47.988;-4.186;2023-01-31T13:25:34;101218.22;;;12.19
45034;BMP280;30771;47.988;-4.186;2023-01-31T13:32:56;101129.22;;;11.86
45034;BMP280;30771;47.988;-4.186;2023-01-31T13:35:32;101108.91;;;11.80
45034;BMP280;30771;47.988;-4.186;2023-01-31T13:37:59;101072.34;;;11.77
45034;BMP280;30771;47.988;-4.186;2023-01-31T13:40:27;101039.47;;;11.79
45034;BMP280;30771;47.988;-4.186;2023-01-31T13:42:54;101011.69;;;11.83
45034;BMP280;30771;47.988;-4.186;2023-01-31T13:45:26;100994.66;;;11.86
45034;BMP280;30771;47.988;-4.186;2023-01-31T13:47:55;100984.28;;;11.84
45034;BMP280;30771;47.988;-4.186;2023-01-31T13:50:33;100963.19;;;11.84
45034;BMP280;30771;47.988;-4.186;2023-01-31T13:52:59;100949.78;;;11.86
45034;BMP280;30771;47.988;-4.186;2023-01-31T13:55:31;100942.47;;;11.88
45034;BMP280;30771;47.988;-4.186;2023-01-31T13:58:01;100925.88;;;11.87
45034;BMP280;30771;47.988;-4.186;2023-01-31T14:00:43;100918.94;;;11.80
45034;BMP280;30771;47.988;-4.186;2023-01-31T14:03:09;100886.41;;;11.73
45034;BMP280;30771;47.988;-4.186;2023-01-31T14:10:50;100813.31;;;11.60
45034;BMP280;30771;47.988;-4.186;2023-01-31T14:13:21;100790.97;;;11.56
45034;BMP280;30771;47.988;-4.186;2023-01-31T14:15:48;100768.22;;;11.49
45034;BMP280;30771;47.988;-4.186;2023-01-31T14:18:29;100742.25;;;11.46
45034;BMP280;30771;47.988;-4.186;2023-01-31T14:21:18;100708.56;;;11.41
45034;BMP280;30771;47.988;-4.186;2023-01-31T14:23:44;100682.41;;;11.40
45034;BMP280;30771;47.988;-4.186;2023-01-31T14:28:53;100634.50;;;11.30
45034;BMP280;30771;47.988;-4.186;2023-01-31T14:31:18;100605.75;;;11.28
45034;BMP280;30771;47.988;-4.186;2023-01-31T14:33:44;100594.38;;;11.28
45034;BMP280;30771;47.988;-4.186;2023-01-31T14:36:24;100582.84;;;11.29
45034;BMP280;30771;47.988;-4.186;2023-01-31T14:48:47;100513.88;;;11.25
45034;BMP280;30771;47.988;-4.186;2023-01-31T14:56:39;100490.13;;;11.45
45034;BMP280;30771;47.988;-4.186;2023-01-31T14:59:20;100492.38;;;11.48
45034;BMP280;30771;47.988;-4.186;2023-01-31T15:01:48;100494.81;;;11.49
45034;BMP280;30771;47.988;-4.186;2023-01-31T15:04:17;100500.88;;;11.56
45034;BMP280;30771;47.988;-4.186;2023-01-31T15:06:46;100498.25;;;11.63
45034;BMP280;30771;47.988;-4.186;2023-01-31T15:11:42;100506.72;;;11.78
45034;BMP280;30771;47.988;-4.186;2023-01-31T15:17:05;100511.13;;;11.90
45034;BMP280;30771;47.988;-4.186;2023-01-31T15:19:33;100515.41;;;11.91
45034;BMP280;30771;47.988;-4.186;2023-01-31T15:22:00;100502.41;;;11.96
45034;BMP280;30771;47.988;-4.186;2023-01-31T15:24:31;100510.75;;;11.93
45034;BMP280;30771;47.988;-4.186;2023-01-31T15:26:56;100510.50;;;11.95
45034;BMP280;30771;47.988;-4.186;2023-01-31T15:29:23;100518.03;;;11.98
45034;BMP280;30771;47.988;-4.186;2023-01-31T15:31:51;100527.94;;;12.02
45034;BMP280;30771;47.988;-4.186;2023-01-31T15:34:21;100547.06;;;12.04
45034;BMP280;30771;47.988;-4.186;2023-01-31T15:39:20;100594.38;;;11.99
45034;BMP280;30771;47.988;-4.186;2023-01-31T15:41:46;100605.72;;;12.00
45034;BMP280;30771;47.988;-4.186;2023-01-31T15:46:36;100651.78;;;11.97
45034;BMP280;30771;47.988;-4.186;2023-01-31T15:49:01;100677.00;;;11.93
45034;BMP280;30771;47.988;-4.186;2023-01-31T15:51:27;100692.38;;;11.90
45034;BMP280;30771;47.988;-4.186;2023-01-31T15:54:02;100712.13;;;11.87
45034;BMP280;30771;47.988;-4.186;2023-01-31T15:56:28;100723.25;;;11.83
45034;BMP280;30771;47.988;-4.186;2023-01-31T15:58:54;100745.16;;;11.77
45034;BMP280;30771;47.988;-4.186;2023-01-31T16:01:20;100749.84;;;11.75
45034;BMP280;30771;47.988;-4.186;2023-01-31T16:03:53;100743.34;;;11.77
45034;BMP280;30771;47.988;-4.186;2023-01-31T16:06:23;100740.09;;;11.82
45034;BMP280;30771;47.988;-4.186;2023-01-31T16:08:52;100746.00;;;11.84
45034;BMP280;30771;47.988;-4.186;2023-01-31T16:11:18;100760.38;;;11.81
45034;BMP280;30771;47.988;-4.186;2023-01-31T16:13:44;100771.19;;;11.80
45034;BMP280;30771;47.988;-4.186;2023-01-31T16:16:10;100767.72;;;11.79
45034;BMP280;30771;47.988;-4.186;2023-01-31T16:18:35;100765.25;;;11.78
45034;BMP280;30771;47.988;-4.186;2023-01-31T16:21:14;100775.41;;;11.74
45034;BMP280;30771;47.988;-4.186;2023-01-31T16:23:39;100771.53;;;11.70
45034;BMP280;30771;47.988;-4.186;2023-01-31T16:28:41;100779.44;;;11.64
45034;BMP280;30771;47.988;-4.186;2023-01-31T16:31:09;100794.22;;;11.58
45034;BMP280;30771;47.988;-4.186;2023-01-31T16:33:34;100796.63;;;11.53
45034;BMP280;30771;47.988;-4.186;2023-01-31T16:36:10;100798.63;;;11.51
45034;BMP280;30771;47.988;-4.186;2023-01-31T16:38:36;100788.53;;;11.48
45034;BMP280;30771;47.988;-4.186;2023-01-31T16:41:03;100768.41;;;11.41
45034;BMP280;30771;47.988;-4.186;2023-01-31T16:43:29;100770.66;;;11.44
45034;BMP280;30771;47.988;-4.186;2023-01-31T16:46:02;100757.88;;;11.41
45034;BMP280;30771;47.988;-4.186;2023-01-31T16:48:28;100746.09;;;11.37
45034;BMP280;30771;47.988;-4.186;2023-01-31T16:50:54;100734.47;;;11.31
45034;BMP280;30771;47.988;-4.186;2023-01-31T17:01:16;100695.47;;;11.07
45034;BMP280;30771;47.988;-4.186;2023-01-31T17:03:43;100687.16;;;11.03
45034;BMP280;30771;47.988;-4.186;2023-01-31T17:06:09;100674.56;;;10.99
45034;BMP280;30771;47.988;-4.186;2023-01-31T17:08:41;100654.06;;;10.94
45034;BMP280;30771;47.988;-4.186;2023-01-31T17:11:07;100654.69;;;10.90
45034;BMP280;30771;47.988;-4.186;2023-01-31T17:13:34;100655.47;;;10.84
45034;BMP280;30771;47.988;-4.186;2023-01-31T17:16:00;100641.88;;;10.80
45034;BMP280;30771;47.988;-4.186;2023-01-31T17:18:25;100637.78;;;10.78
45034;BMP280;30771;47.988;-4.186;2023-01-31T17:20:50;100622.41;;;10.75
45034;BMP280;30771;47.988;-4.186;2023-01-31T17:23:16;100622.59;;;10.73
45034;BMP280;30771;47.988;-4.186;2023-01-31T17:25:41;100614.06;;;10.71
45034;BMP280;30771;47.988;-4.186;2023-01-31T17:28:06;100602.94;;;10.69
45034;BMP280;30771;47.988;-4.186;2023-01-31T17:30:31;100598.66;;;10.68
45034;BMP280;30771;47.988;-4.186;2023-01-31T17:32:58;100600.28;;;10.69
45034;BMP280;30771;47.988;-4.186;2023-01-31T17:35:25;100591.56;;;10.69
45034;BMP280;30771;47.988;-4.186;2023-01-31T17:37:50;100589.94;;;10.68
45034;BMP280;30771;47.988;-4.186;2023-01-31T17:40:16;100568.69;;;10.69
45034;BMP280;30771;47.988;-4.186;2023-01-31T17:42:41;100564.25;;;10.70
45034;BMP280;30771;47.988;-4.186;2023-01-31T17:45:11;100553.72;;;10.70
45034;BMP280;30771;47.988;-4.186;2023-01-31T17:47:36;100558.16;;;10.69
45034;BMP280;30771;47.988;-4.186;2023-01-31T17:50:01;100545.16;;;10.68
45034;BMP280;30771;47.988;-4.186;2023-01-31T17:52:27;100548.84;;;10.67
45034;BMP280;30771;47.988;-4.186;2023-01-31T17:54:52;100540.50;;;10.63
45034;BMP280;30771;47.988;-4.186;2023-01-31T17:57:17;100547.19;;;10.59
45034;BMP280;30771;47.988;-4.186;2023-01-31T17:59:43;100544.13;;;10.56
45034;BMP280;30771;47.988;-4.186;2023-01-31T18:02:08;100543.72;;;10.52
45034;BMP280;30771;47.988;-4.186;2023-01-31T18:04:33;100534.41;;;10.50
45034;BMP280;30771;47.988;-4.186;2023-01-31T18:06:58;100531.94;;;10.48
45034;BMP280;30771;47.988;-4.186;2023-01-31T18:09:24;100520.78;;;10.46
45034;BMP280;30771;47.988;-4.186;2023-01-31T18:11:49;100517.53;;;10.44
45034;BMP280;30771;47.988;-4.186;2023-01-31T18:14:14;100520.41;;;10.43
45034;BMP280;30771;47.988;-4.186;2023-01-31T18:16:39;100510.63;;;10.43
45034;BMP280;30771;47.988;-4.186;2023-01-31T18:19:05;100503.56;;;10.44
45034;BMP280;30771;47.988;-4.186;2023-01-31T18:21:30;100495.66;;;10.44
45034;BMP280;30771;47.988;-4.186;2023-01-31T18:23:55;100490.41;;;10.44
45034;BMP280;30771;47.988;-4.186;2023-01-31T18:26:21;100484.97;;;10.45
45034;BMP280;30771;47.988;-4.186;2023-01-31T18:28:47;100480.50;;;10.46
45034;BMP280;30771;47.988;-4.186;2023-01-31T18:31:12;100470.78;;;10.46
45034;BMP280;30771;47.988;-4.186;2023-01-31T18:33:37;100479.50;;;10.47
45034;BMP280;30771;47.988;-4.186;2023-01-31T18:36:03;100482.94;;;10.47
45034;BMP280;30771;47.988;-4.186;2023-01-31T18:38:29;100479.28;;;10.48
45034;BMP280;30771;47.988;-4.186;2023-01-31T18:40:54;100474.03;;;10.48
45034;BMP280;30771;47.988;-4.186;2023-01-31T18:43:20;100463.31;;;10.50
45034;BMP280;30771;47.988;-4.186;2023-01-31T18:45:45;100465.97;;;10.50
45034;BMP280;30771;47.988;-4.186;2023-01-31T18:48:10;100453.63;;;10.50
45034;BMP280;30771;47.988;-4.186;2023-01-31T18:50:36;100457.03;;;10.51
45034;BMP280;30771;47.988;-4.186;2023-01-31T18:53:01;100452.56;;;10.51
45034;BMP280;30771;47.988;-4.186;2023-01-31T18:55:26;100449.13;;;10.51
45034;BMP280;30771;47.988;-4.186;2023-01-31T18:57:51;100449.34;;;10.49
45034;BMP280;30771;47.988;-4.186;2023-01-31T19:00:17;100435.75;;;10.46
45034;BMP280;30771;47.988;-4.186;2023-01-31T19:02:48;100437.16;;;10.48
45034;BMP280;30771;47.988;-4.186;2023-01-31T19:05:13;100432.72;;;10.49
45034;BMP280;30771;47.988;-4.186;2023-01-31T19:07:38;100424.22;;;10.47
45034;BMP280;30771;47.988;-4.186;2023-01-31T19:10:04;100409.22;;;10.41
45034;BMP280;30771;47.988;-4.186;2023-01-31T19:12:29;100409.41;;;10.46
45034;BMP280;30771;47.988;-4.186;2023-01-31T19:14:55;100406.00;;;10.45
45034;BMP280;30771;47.988;-4.186;2023-01-31T19:17:21;100396.88;;;10.41
45034;BMP280;30771;47.988;-4.186;2023-01-31T19:19:46;100400.72;;;10.45
45034;BMP280;30771;47.988;-4.186;2023-01-31T19:22:11;100398.72;;;10.47
45034;BMP280;30771;47.988;-4.186;2023-01-31T19:24:37;100389.78;;;10.48
45034;BMP280;30771;47.988;-4.186;2023-01-31T19:27:02;100362.22;;;10.31
45034;BMP280;30771;47.988;-4.186;2023-01-31T19:29:27;100347.63;;;10.22
45034;BMP280;30771;47.988;-4.186;2023-01-31T19:31:53;100348.44;;;10.29
45034;BMP280;30771;47.988;-4.186;2023-01-31T19:34:20;100367.50;;;10.44
45034;BMP280;30771;47.988;-4.186;2023-01-31T19:36:46;100319.31;;;10.18
45034;BMP280;30771;47.988;-4.186;2023-01-31T19:39:11;100330.44;;;10.26
45034;BMP280;30771;47.988;-4.186;2023-01-31T19:41:37;100338.72;;;10.36
45034;BMP280;30771;47.988;-4.186;2023-01-31T19:44:02;100331.06;;;10.35
45034;BMP280;30771;47.988;-4.186;2023-01-31T19:46:29;100328.63;;;10.33
45034;BMP280;30771;47.988;-4.186;2023-01-31T19:48:55;100320.72;;;10.33
45034;BMP280;30771;47.988;-4.186;2023-01-31T19:51:20;100315.66;;;10.32
45034;BMP280;30771;47.988;-4.186;2023-01-31T19:53:46;100321.13;;;10.30
45034;BMP280;30771;47.988;-4.186;2023-01-31T19:56:11;100318.69;;;10.29
45034;BMP280;30771;47.988;-4.186;2023-01-31T19:58:36;100307.53;;;10.27
45034;BMP280;30771;47.988;-4.186;2023-01-31T20:01:04;100318.31;;;10.25
45034;BMP280;30771;47.988;-4.186;2023-01-31T20:03:30;100315.25;;;10.22
45034;BMP280;30771;47.988;-4.186;2023-01-31T20:06:02;100314.03;;;10.18
45034;BMP280;30771;47.988;-4.186;2023-01-31T20:08:28;100307.34;;;10.15
45034;BMP280;30771;47.988;-4.186;2023-01-31T20:10:53;100315.63;;;10.12
45034;BMP280;30771;47.988;-4.186;2023-01-31T20:13:18;100307.16;;;10.10
45034;BMP280;30771;47.988;-4.186;2023-01-31T20:15:44;100305.09;;;10.05
45034;BMP280;30771;47.988;-4.186;2023-01-31T20:18:09;100296.78;;;10.02
45034;BMP280;30771;47.988;-4.186;2023-01-31T20:20:34;100304.28;;;9.98
45034;BMP280;30771;47.988;-4.186;2023-01-31T20:22:59;100301.22;;;9.95
45034;BMP280;30771;47.988;-4.186;2023-01-31T20:25:24;100303.28;;;9.93
45034;BMP280;30771;47.988;-4.186;2023-01-31T20:27:50;100301.63;;;9.92
45034;BMP280;30771;47.988;-4.186;2023-01-31T20:30:15;100304.66;;;9.89
45034;BMP280;30771;47.988;-4.186;2023-01-31T20:32:40;100310.09;;;9.87
45034;BMP280;30771;47.988;-4.186;2023-01-31T20:35:05;100306.84;;;9.85
45034;BMP280;30771;47.988;-4.186;2023-01-31T20:37:31;100316.38;;;9.86
45034;BMP280;30771;47.988;-4.186;2023-01-31T20:39:56;100315.56;;;9.86
45034;BMP280;30771;47.988;-4.186;2023-01-31T20:42:21;100327.91;;;9.85
45034;BMP280;30771;47.988;-4.186;2023-01-31T20:44:46;100329.94;;;9.83
45034;BMP280;30771;47.988;-4.186;2023-01-31T20:47:11;100333.38;;;9.84
45034;BMP280;30771;47.988;-4.186;2023-01-31T20:49:37;100335.19;;;9.83
45034;BMP280;30771;47.988;-4.186;2023-01-31T20:52:02;100339.63;;;9.83
45034;BMP280;30771;47.988;-4.186;2023-01-31T20:54:27;100345.28;;;9.80
45034;BMP280;30771;47.988;-4.186;2023-01-31T20:56:52;100353.53;;;9.77
45034;BMP280;30771;47.988;-4.186;2023-01-31T20:59:17;100360.00;;;9.74
45034;BMP280;30771;47.988;-4.186;2023-01-31T21:01:43;100371.94;;;9.70
45034;BMP280;30771;47.988;-4.186;2023-01-31T21:04:08;100372.34;;;9.67
45034;BMP280;30771;47.988;-4.186;2023-01-31T21:06:33;100382.44;;;9.64
45034;BMP280;30771;47.988;-4.186;2023-01-31T21:08:59;100388.88;;;9.61
45034;BMP280;30771;47.988;-4.186;2023-01-31T21:11:24;100392.69;;;9.59
45034;BMP280;30771;47.988;-4.186;2023-01-31T21:13:49;100402.38;;;9.58
45034;BMP280;30771;47.988;-4.186;2023-01-31T21:16:14;100416.34;;;9.59
45034;BMP280;30771;47.988;-4.186;2023-01-31T21:18:39;100426.28;;;9.57
45034;BMP280;30771;47.988;-4.186;2023-01-31T21:21:05;100428.47;;;9.53
45034;BMP280;30771;47.988;-4.186;2023-01-31T21:23:31;100444.81;;;9.49
45034;BMP280;30771;47.988;-4.186;2023-01-31T21:26:03;100450.03;;;9.42
45034;BMP280;30771;47.988;-4.186;2023-01-31T21:28:28;100467.53;;;9.35
45034;BMP280;30771;47.988;-4.186;2023-01-31T21:30:57;100476.41;;;9.28
45034;BMP280;30771;47.988;-4.186;2023-01-31T21:33:22;100489.47;;;9.21
45034;BMP280;30771;47.988;-4.186;2023-01-31T21:35:47;100493.81;;;9.14
45034;BMP280;30771;47.988;-4.186;2023-01-31T21:38:13;100508.53;;;9.08
45034;BMP280;30771;47.988;-4.186;2023-01-31T21:40:38;100513.53;;;9.03
45034;BMP280;30771;47.988;-4.186;2023-01-31T21:43:03;100522.56;;;8.94
45034;BMP280;30771;47.988;-4.186;2023-01-31T21:45:28;100527.53;;;8.89
45034;BMP280;30771;47.988;-4.186;2023-01-31T21:47:54;100535.16;;;8.84
45034;BMP280;30771;47.988;-4.186;2023-01-31T21:50:19;100540.50;;;8.76
45034;BMP280;30771;47.988;-4.186;2023-01-31T21:52:44;100541.44;;;8.69
45034;BMP280;30771;47.988;-4.186;2023-01-31T21:55:09;100566.16;;;8.60
45034;BMP280;30771;47.988;-4.186;2023-01-31T21:57:34;100575.94;;;8.51
45034;BMP280;30771;47.988;-4.186;2023-01-31T22:00:00;100576.03;;;8.43
45034;BMP280;30771;47.988;-4.186;2023-01-31T22:02:25;100588.69;;;8.40
45034;BMP280;30771;47.988;-4.186;2023-01-31T22:04:50;100592.66;;;8.35
45034;BMP280;30771;47.988;-4.186;2023-01-31T22:07:15;100603.72;;;8.31
45034;BMP280;30771;47.988;-4.186;2023-01-31T22:09:40;100605.84;;;8.27
45034;BMP280;30771;47.988;-4.186;2023-01-31T22:12:05;100606.25;;;8.24
45034;BMP280;30771;47.988;-4.186;2023-01-31T22:14:31;100618.06;;;8.20
45034;BMP280;30771;47.988;-4.186;2023-01-31T22:16:56;100623.25;;;8.14
45034;BMP280;30771;47.988;-4.186;2023-01-31T22:19:21;100625.56;;;8.09
45034;BMP280;30771;47.988;-4.186;2023-01-31T22:21:46;100620.84;;;8.04
45034;BMP280;30771;47.988;-4.186;2023-01-31T22:24:11;100626.63;;;8.00
45034;BMP280;30771;47.988;-4.186;2023-01-31T22:26:38;100642.84;;;7.95
45034;BMP280;30771;47.988;-4.186;2023-01-31T22:29:04;100634.75;;;7.90
45034;BMP280;30771;47.988;-4.186;2023-01-31T22:31:30;100648.06;;;7.81
45034;BMP280;30771;47.988;-4.186;2023-01-31T22:33:55;100649.75;;;7.74
45034;BMP280;30771;47.988;-4.186;2023-01-31T22:36:21;100662.56;;;7.69
45034;BMP280;30771;47.988;-4.186;2023-01-31T22:38:46;100654.06;;;7.67
45034;BMP280;30771;47.988;-4.186;2023-01-31T22:41:12;100657.22;;;7.62
45034;BMP280;30771;47.988;-4.186;2023-01-31T22:43:42;100655.94;;;7.58
45034;BMP280;30771;47.988;-4.186;2023-01-31T22:46:08;100663.50;;;7.53
45034;BMP280;30771;47.988;-4.186;2023-01-31T22:48:34;100665.63;;;7.49